Предлагаем Вашему вниманию английскую версию страницы: AUTOTAF.ME UNQS - aviation weather forecast Krasnoyarsk (Solnechnyj)

AUTOTAF UNQS - авиапрогноз Красноярск (Солнечный)

Сегодня рассвет 01:13 UTC, восход солнца 01:55 UTC,
местный полдень 06:00 UTC, заход солнца 10:05 UTC,
наступление темноты 10:47 UTC.

Краткий прогноз UNQS на 9 часов

AUTOTAF.ME UNQS 251700Z 2518/2603 VRB02MPS 0500 FG IC NSC    
  FM252100 VRB02MPS CAVOK

Детальный прогноз UNQS на 24 часа

AUTOTAF.ME UNQS 251700Z 2518/2618 VRB02MPS 0500 FG IC BKN110 TXM29/2606Z TNM37/2618Z  
  FM252100 VRB02MPS 9999 SKC    
  FM260900 VRB02MPS 3500 HZ SKC 
  FM261200 VRB02MPS 0200 FG IC SKC

Подробный табличный прогноз

Время (UTC) miniAUTOTAF на 3 ч WX FZLVL
M AGL
ICE TURB Т
(°С)
Тd
(°С)
f(%) QNH
(гПа)
WIND/T
15 VRB02MPS 0500 FG IC BKN120 FG IC SFC -34 -37 71 1043 ...
18 VRB02MPS 0500 FG IC BKN110 FG IC SFC -33 -36 70 1043 ...
21 VRB02MPS 9999 SKC SFC -32 -35 69 1041 ...
26.01.2021
00 VRB02MPS 9999 SKC SFC -31 -35 70 1040 ...
03 VRB02MPS 9999 SKC SFC -31 -35 71 1041 ...
06 VRB02MPS 9999 SKC SFC MOD SFC/FL20 -29 -34 65 1040 ...
09 VRB02MPS 3500 HZ SKC HZ SFC MOD SFC/FL20 -29 -33 67 1041 ...
12 VRB02MPS 0200 FG IC SKC FG IC SFC -33 -36 71 1043 ...
15 VRB02MPS 0200 FG IC SKC FG IC SFC -36 -39 69 1043 ...
18 VRB02MPS 0200 FG IC SKC FG IC SFC -37 -41 69 1043 ...
21 VRB02MPS 0500 FG IC FEW180 FG IC SFC -39 -42 69 1041 ...
27.01.2021
00 VRB02MPS 1000 BR BKN010 BR SFC -39 -43 67 1039 ...
03 VRB02MPS 9999 BKN010 SFC -37 -41 68 1035 ...
06 VRB02MPS 9999 OVC009 SFC MOD FL20/FL40 MOD FL30/FL40 -29 -33 69 1030 ...
09 20003MPS 9999 -SN OVC008 -SN SFC MOD FL20/FL40 MOD SFC/FL40 -21 -24 76 1024 ...


Широта 56.1086°, долгота 92.93691°, высота 318 м абс.
Средняя высота рельефа местности 290 м абс.
Прогнозы обновляются четыре раза в сутки: в 02, 08, 14, 20 ч всемирного времени.


Выбрать прогноз по другой модели Красноярск (Солнечный)
Онлайн-сводка гроз по Красноярск (Солнечный) (для РФ и ближнего зарубежья)
Карта фактических гроз в окрестностях Красноярск (Солнечный)
Динамические прогностические карты (ventusky.com)
Прогностическая карта высоты нижней границы облаков по Красноярск (Солнечный) (windy.com)
Выбрать другой город

Прогноз предназначен для личного научно-познавательного использования частными лицами
и не предназначен для принятия важных решений и выполнения реальных полётов воздушных судов

При копировании или ином использовании любых материалов данного сайта ссылка на © meteocenter.asia обязательна.

0.59/1